Time;durP1;ratioP1;P1;durP2;ratioP2;P2;SDS_P1;SDS_P2;PMS_P1;PMS_P2;Temp;Humidity;BMP_temperature;BMP_pressure;BME280_temperature;BME280_humidity;BME280_pressure;Samples;Min_cycle;Max_cycle;Signal;HPM_P1;HPM_P2
2023/04/29 00:00:52;;;;;;;32.70;22.10;;;12.20;99.90;;;;;;2614107;54;20524;-75
2023/04/29 00:06:40;;;;;;;32.50;21.73;;;12.00;99.90;;;;;;2614053;54;20130;-75
2023/04/29 00:12:30;;;;;;;30.63;19.07;;;11.90;99.90;;;;;;2615363;54;20382;-75
2023/04/29 00:18:18;;;;;;;44.13;24.23;;;11.90;99.90;;;;;;2614418;54;20523;-75
2023/04/29 00:24:06;;;;;;;34.23;22.83;;;11.80;99.90;;;;;;2615859;54;20178;-75
2023/04/29 00:29:54;;;;;;;34.23;23.57;;;11.70;99.90;;;;;;2614204;54;20146;-74
2023/04/29 00:33:13;;;;;;;36.63;24.40;;;11.80;99.90;;;;;;2613548;54;20423;-74
2023/04/29 00:35:38;;;;;;;38.53;24.07;;;11.70;99.90;;;;;;2615108;39;20962;-74
2023/04/29 00:41:26;;;;;;;33.07;24.30;;;11.70;99.90;;;;;;2614633;54;20775;-75
2023/04/29 00:47:13;;;;;;;43.33;27.40;;;11.60;99.90;;;;;;2614743;54;20178;-75
2023/04/29 00:53:02;;;;;;;51.60;27.17;;;11.50;99.90;;;;;;2613104;54;20137;-75
2023/04/29 00:58:51;;;;;;;47.63;26.20;;;11.40;99.90;;;;;;2614732;54;20429;-75
2023/04/29 01:04:39;;;;;;;44.30;27.80;;;11.40;99.90;;;;;;2614422;54;20422;-75
2023/04/29 01:10:31;;;;;;;63.97;35.80;;;11.20;99.90;;;;;;2614889;54;20295;-75
2023/04/29 01:23:03;;;;;;;69.03;34.47;;;11.00;99.90;;;;;;2613222;54;20391;-74
2023/04/29 01:35:49;;;;;;;70.90;38.17;;;10.90;99.90;;;;;;2613347;54;20399;-74
2023/04/29 01:41:43;;;;;;;81.80;42.43;;;10.90;99.90;;;;;;2610898;54;20403;-74
2023/04/29 01:47:31;;;;;;;86.47;40.80;;;10.70;99.90;;;;;;2611031;54;20391;-76
2023/04/29 01:53:19;;;;;;;79.87;40.80;;;10.60;99.90;;;;;;2610772;54;20394;-74
2023/04/29 01:59:07;;;;;;;91.53;47.30;;;10.60;99.90;;;;;;2613159;54;20799;-69
2023/04/29 02:04:54;;;;;;;90.30;45.17;;;10.40;99.90;;;;;;2613111;54;20942;-68
2023/04/29 02:17:16;;;;;;;92.43;43.63;;;10.10;99.90;;;;;;2609540;54;20366;-68
2023/04/29 02:23:04;;;;;;;84.10;42.77;;;10.00;99.90;;;;;;2610880;39;20631;-68
2023/04/29 02:28:51;;;;;;;94.50;42.77;;;10.10;99.90;;;;;;2609904;54;20231;-67
2023/04/29 02:38:01;;;;;;;93.57;40.73;;;10.10;99.90;;;;;;2609503;54;20382;-68
2023/04/29 02:43:49;;;;;;;67.60;35.00;;;10.10;99.90;;;;;;2612487;54;20161;-67
2023/04/29 02:49:36;;;;;;;61.07;30.23;;;10.00;99.90;;;;;;2609846;54;20126;-68
2023/04/29 02:55:24;;;;;;;52.93;26.00;;;9.90;99.90;;;;;;2608573;46;20258;-68
2023/04/29 03:01:11;;;;;;;53.37;27.43;;;9.80;99.90;;;;;;2610535;54;20287;-68
2023/04/29 03:06:59;;;;;;;58.50;28.30;;;9.80;99.90;;;;;;2610390;54;20153;-68
2023/04/29 03:12:47;;;;;;;44.67;23.20;;;9.70;99.90;;;;;;2611193;54;20166;-68
2023/04/29 03:18:34;;;;;;;46.53;26.67;;;9.70;99.90;;;;;;2614004;54;20122;-67
2023/04/29 03:24:23;;;;;;;48.83;26.80;;;9.70;99.90;;;;;;2612556;54;20142;-67
2023/04/29 03:30:10;;;;;;;46.07;25.83;;;9.70;99.90;;;;;;2613681;39;20510;-67
2023/04/29 03:33:27;;;;;;;51.47;26.93;;;9.70;99.90;;;;;;2608666;54;20499;-67
2023/04/29 03:35:54;;;;;;;45.20;25.97;;;9.70;99.90;;;;;;2610410;54;20166;-68
2023/04/29 03:41:42;;;;;;;45.43;25.97;;;9.70;99.90;;;;;;2611224;54;20395;-68
2023/04/29 03:47:29;;;;;;;50.07;26.60;;;9.70;99.90;;;;;;2611099;54;20126;-69
2023/04/29 03:53:17;;;;;;;49.73;24.80;;;9.70;99.90;;;;;;2614951;54;20145;-68
2023/04/29 03:59:06;;;;;;;49.43;26.07;;;9.70;99.90;;;;;;2611928;54;20146;-68
2023/04/29 04:04:54;;;;;;;50.70;26.40;;;9.60;99.90;;;;;;2612178;54;20936;-67
2023/04/29 04:10:41;;;;;;;47.40;27.63;;;9.60;99.90;;;;;;2611271;54;20146;-66
2023/04/29 04:16:29;;;;;;;48.33;27.93;;;9.60;99.90;;;;;;2613592;54;20167;-68
2023/04/29 04:22:17;;;;;;;53.67;28.07;;;9.60;99.90;;;;;;2609130;54;20139;-68
2023/04/29 04:28:05;;;;;;;52.63;30.13;;;9.70;99.90;;;;;;2609945;54;20391;-68
2023/04/29 04:37:56;;;;;;;49.73;26.40;;;9.70;99.90;;;;;;2610642;54;20424;-70
2023/04/29 04:43:43;;;;;;;54.33;29.07;;;9.70;99.90;;;;;;2610717;54;20451;-68
2023/04/29 04:49:31;;;;;;;48.23;26.33;;;9.60;99.90;;;;;;2607843;54;20852;-67
2023/04/29 04:55:19;;;;;;;46.23;26.80;;;9.60;99.90;;;;;;2609396;54;20125;-68
2023/04/29 05:01:07;;;;;;;50.13;27.60;;;9.60;99.90;;;;;;2608778;54;20126;-69
2023/04/29 05:06:54;;;;;;;51.63;29.53;;;9.70;99.90;;;;;;2609439;54;20150;-68
2023/04/29 05:12:42;;;;;;;46.37;27.50;;;9.70;99.90;;;;;;2614131;54;20174;-67
2023/04/29 05:18:29;;;;;;;47.30;28.07;;;9.70;99.90;;;;;;2612304;46;20170;-68
2023/04/29 05:24:17;;;;;;;45.63;28.77;;;9.70;99.90;;;;;;2614244;54;20139;-68
2023/04/29 05:30:06;;;;;;;44.50;27.47;;;9.80;99.90;;;;;;2611965;54;20230;-72
2023/04/29 05:33:27;;;;;;;48.73;30.77;;;9.80;99.90;;;;;;2614078;54;20535;-69
2023/04/29 05:35:53;;;;;;;46.07;28.63;;;9.80;99.90;;;;;;2610513;54;20391;-68
2023/04/29 05:41:41;;;;;;;46.47;29.40;;;9.80;99.90;;;;;;2607748;54;20265;-69
2023/04/29 05:47:28;;;;;;;47.63;28.63;;;9.90;99.90;;;;;;2610789;54;20163;-68
2023/04/29 05:53:16;;;;;;;46.10;31.30;;;9.90;99.90;;;;;;2614521;54;20142;-71
2023/04/29 05:59:04;;;;;;;56.80;30.87;;;9.80;99.90;;;;;;2610137;54;20138;-68
2023/04/29 06:04:52;;;;;;;50.03;30.10;;;9.90;99.90;;;;;;2609930;54;20692;-68
2023/04/29 06:10:41;;;;;;;45.43;29.13;;;9.90;99.90;;;;;;2603764;54;20170;-68
2023/04/29 06:16:29;;;;;;;45.80;29.87;;;10.00;99.90;;;;;;2609391;54;20391;-68
2023/04/29 06:22:18;;;;;;;49.90;30.43;;;9.90;99.90;;;;;;2610393;54;20648;-68
2023/04/29 06:28:07;;;;;;;45.03;28.93;;;9.90;99.90;;;;;;2606030;54;20387;-68
2023/04/29 06:37:55;;;;;;;43.73;28.67;;;10.10;99.90;;;;;;2613892;54;20983;-68
2023/04/29 06:43:43;;;;;;;45.87;29.37;;;10.10;99.90;;;;;;2610046;54;20380;-68
2023/04/29 06:49:30;;;;;;;40.37;27.10;;;10.10;99.90;;;;;;2608192;54;20491;-68
2023/04/29 06:55:18;;;;;;;37.50;25.80;;;10.00;99.90;;;;;;2605015;54;20130;-69
2023/04/29 07:01:07;;;;;;;39.00;26.67;;;10.00;99.90;;;;;;2608851;54;20127;-68
2023/04/29 07:06:55;;;;;;;42.23;25.73;;;9.80;99.90;;;;;;2610194;54;20378;-69
2023/04/29 07:09:58;;;;;;;35.80;27.10;;;9.80;99.90;;;;;;2611865;54;20444;-67
2023/04/29 07:12:24;;;;;;;44.27;30.70;;;9.90;99.90;;;;;;2611545;54;20275;-68
2023/04/29 07:18:11;;;;;;;37.10;26.70;;;9.90;99.90;;;;;;2612623;54;20162;-69
2023/04/29 07:24:01;;;;;;;34.63;25.60;;;9.90;99.90;;;;;;2610692;54;20143;-67
2023/04/29 07:29:49;;;;;;;40.00;27.23;;;9.80;99.90;;;;;;2612976;54;21021;-68
2023/04/29 07:38:59;;;;;;;43.90;28.80;;;9.80;99.90;;;;;;2609899;46;20462;-69
2023/04/29 07:44:46;;;;;;;38.90;27.93;;;9.80;99.90;;;;;;2612090;39;20730;-69
2023/04/29 07:50:35;;;;;;;47.07;27.23;;;9.80;99.90;;;;;;2612866;46;20529;-69
2023/04/29 07:56:23;;;;;;;39.10;26.70;;;9.80;99.90;;;;;;2614428;39;20963;-68
2023/04/29 08:02:11;;;;;;;41.27;28.57;;;9.80;99.90;;;;;;2612677;54;20129;-69
2023/04/29 08:07:58;;;;;;;45.63;32.50;;;9.90;99.90;;;;;;2613890;54;20158;-69
2023/04/29 08:13:46;;;;;;;50.67;31.93;;;9.90;99.90;;;;;;2612229;54;20696;-69
2023/04/29 08:19:34;;;;;;;55.63;36.30;;;9.80;99.90;;;;;;2611641;54;20235;-69
2023/04/29 08:25:22;;;;;;;53.40;33.70;;;9.90;99.90;;;;;;2613123;54;20391;-69
2023/04/29 08:31:20;;;;;;;58.90;35.60;;;9.90;99.90;;;;;;2612237;54;20138;-69
2023/04/29 08:34:25;;;;;;;54.40;35.63;;;9.90;99.90;;;;;;2612453;54;20427;-69
2023/04/29 08:36:51;;;;;;;61.77;36.40;;;9.90;99.90;;;;;;2608689;47;20428;-68
2023/04/29 08:42:40;;;;;;;53.60;35.07;;;10.00;99.90;;;;;;2607880;54;20691;-69
2023/04/29 08:48:29;;;;;;;53.50;31.93;;;10.00;99.90;;;;;;2606076;54;20491;-68
2023/04/29 08:54:16;;;;;;;53.67;33.50;;;10.10;99.90;;;;;;2612403;54;20396;-68
2023/04/29 09:00:09;;;;;;;65.20;36.60;;;10.20;99.90;;;;;;2610037;54;20940;-67
2023/04/29 09:06:00;;;;;;;61.40;37.10;;;10.20;99.90;;;;;;2614104;54;20431;-68
2023/04/29 09:11:48;;;;;;;44.00;30.30;;;10.30;99.90;;;;;;2613048;54;20363;-69
2023/04/29 09:17:43;;;;;;;47.13;31.90;;;10.40;99.90;;;;;;2613271;54;20114;-69
2023/04/29 09:23:37;;;;;;;48.80;32.07;;;10.60;99.90;;;;;;2614020;54;20419;-68
2023/04/29 09:29:25;;;;;;;51.60;34.93;;;10.60;99.90;;;;;;2613259;54;20430;-68
2023/04/29 09:38:57;;;;;;;49.37;32.83;;;10.70;99.90;;;;;;2613702;39;20913;-68
2023/04/29 09:44:45;;;;;;;56.97;33.70;;;10.70;99.90;;;;;;2613997;46;20472;-68
2023/04/29 09:50:32;;;;;;;49.87;31.63;;;10.80;99.90;;;;;;2612497;54;20723;-68
2023/04/29 09:56:21;;;;;;;47.73;33.37;;;11.10;99.90;;;;;;2613748;39;20800;-68
2023/04/29 10:02:18;;;;;;;44.87;30.20;;;11.70;99.90;;;;;;2612463;54;20391;-68
2023/04/29 10:08:06;;;;;;;42.33;30.43;;;11.80;99.90;;;;;;2614255;54;20530;-68
2023/04/29 10:13:54;;;;;;;45.87;34.63;;;12.10;99.90;;;;;;2614304;54;20138;-68
2023/04/29 10:25:59;;;;;;;37.97;29.33;;;12.30;99.90;;;;;;2607004;54;20390;-69
2023/04/29 10:31:48;;;;;;;35.77;28.23;;;12.80;99.90;;;;;;2614164;46;20382;-68
2023/04/29 10:34:30;;;;;;;33.40;29.80;;;12.90;99.90;;;;;;2613596;54;20471;-69
2023/04/29 10:36:57;;;;;;;40.33;30.60;;;12.90;99.90;;;;;;2611702;54;20436;-69
2023/04/29 10:42:49;;;;;;;33.20;24.13;;;13.00;99.90;;;;;;2613336;54;20475;-68
2023/04/29 10:48:36;;;;;;;37.27;32.73;;;13.00;99.90;;;;;;2611297;54;20412;-69
2023/04/29 10:54:24;;;;;;;31.50;28.13;;;13.60;99.90;;;;;;2611132;54;20127;-68
2023/04/29 11:06:36;;;;;;;34.00;28.17;;;14.00;99.90;;;;;;2612076;54;20468;-68
2023/04/29 11:12:24;;;;;;;30.47;26.17;;;13.90;99.90;;;;;;2613282;54;20133;-69
2023/04/29 11:18:12;;;;;;;29.60;26.53;;;14.20;99.90;;;;;;2611433;54;20162;-68
2023/04/29 11:24:00;;;;;;;30.13;27.00;;;14.40;99.90;;;;;;2614252;54;20398;-68
2023/04/29 11:29:49;;;;;;;30.00;26.87;;;14.50;99.90;;;;;;2610774;46;21208;-69
2023/04/29 11:39:01;;;;;;;27.90;25.30;;;14.80;99.90;;;;;;2609265;39;20955;-68
2023/04/29 11:44:55;;;;;;;25.33;22.80;;;15.50;99.90;;;;;;2610574;54;20419;-68
2023/04/29 11:50:43;;;;;;;27.63;24.93;;;15.30;99.90;;;;;;2614262;54;20418;-68
2023/04/29 11:56:31;;;;;;;26.73;24.17;;;15.30;99.50;;;;;;2613885;54;20932;-68
2023/04/29 12:08:49;;;;;;;27.13;24.60;;;15.80;96.60;;;;;;2612666;54;20393;-69
2023/04/29 12:14:37;;;;;;;25.13;22.63;;;16.10;87.20;;;;;;2612120;39;20485;-67
2023/04/29 12:20:25;;;;;;;22.87;21.07;;;15.70;91.90;;;;;;2613423;39;20802;-69
2023/04/29 12:26:13;;;;;;;22.87;20.50;;;15.60;92.00;;;;;;2612597;39;20889;-70
2023/04/29 12:32:00;;;;;;;24.20;22.10;;;15.00;91.30;;;;;;2612512;54;20371;-72
2023/04/29 12:41:16;;;;;;;21.83;19.80;;;15.50;82.60;;;;;;2611856;54;21306;-68
2023/04/29 12:47:12;;;;;;;22.17;20.27;;;15.20;90.20;;;;;;2612767;39;20842;-68
2023/04/29 12:53:00;;;;;;;21.73;19.93;;;15.40;83.40;;;;;;2611557;54;20363;-68
2023/04/29 12:58:48;;;;;;;21.60;19.83;;;15.10;69.30;;;;;;2612802;54;21382;-68
2023/04/29 13:04:35;;;;;;;20.57;18.87;;;15.30;70.70;;;;;;2610311;54;20126;-69
2023/04/29 13:10:23;;;;;;;21.93;20.07;;;15.50;74.80;;;;;;2612904;39;20533;-69
2023/04/29 13:16:11;;;;;;;20.73;19.13;;;15.40;69.60;;;;;;2611453;54;20118;-67
2023/04/29 13:21:58;;;;;;;20.17;18.57;;;15.30;67.20;;;;;;2610964;54;20158;-72
2023/04/29 13:27:46;;;;;;;20.00;17.97;;;15.30;65.30;;;;;;2609819;54;20153;-73
2023/04/29 13:33:34;;;;;;;20.50;18.90;;;15.20;58.60;;;;;;2613185;54;20126;-73
2023/04/29 13:36:43;;;;;;;20.03;18.40;;;15.20;64.00;;;;;;2609372;47;20522;-73
2023/04/29 13:39:09;;;;;;;19.23;17.77;;;15.30;59.70;;;;;;2612556;47;20162;-73
2023/04/29 13:44:57;;;;;;;19.17;17.57;;;15.50;59.50;;;;;;2613700;54;20214;-73
2023/04/29 13:50:44;;;;;;;18.80;17.30;;;15.30;51.10;;;;;;2612011;54;20992;-73
2023/04/29 13:56:32;;;;;;;18.40;16.60;;;15.50;59.20;;;;;;2611692;54;20139;-73
2023/04/29 14:02:20;;;;;;;20.10;18.13;;;15.80;53.20;;;;;;2609283;54;20138;-74
2023/04/29 14:08:08;;;;;;;21.33;19.33;;;15.40;60.40;;;;;;2612540;39;20530;-72
2023/04/29 14:13:56;;;;;;;20.53;18.50;;;15.10;56.50;;;;;;2612591;54;20162;-74
2023/04/29 14:19:44;;;;;;;19.33;17.97;;;15.10;61.20;;;;;;2610621;54;20143;-73
2023/04/29 14:25:32;;;;;;;20.57;18.90;;;15.10;70.70;;;;;;2609629;54;20656;-73
2023/04/29 14:31:19;;;;;;;19.33;17.63;;;15.00;72.70;;;;;;2610189;39;20788;-73
2023/04/29 14:41:13;;;;;;;19.57;17.87;;;15.20;68.80;;;;;;2612765;54;20512;-73
2023/04/29 14:47:01;;;;;;;19.17;17.47;;;15.40;55.40;;;;;;2609862;54;20912;-73
2023/04/29 14:52:49;;;;;;;18.80;17.30;;;16.00;50.20;;;;;;2611077;39;20924;-74
2023/04/29 14:58:36;;;;;;;20.20;18.43;;;16.10;40.60;;;;;;2614284;54;21056;-74
2023/04/29 15:04:23;;;;;;;19.10;17.60;;;15.90;33.80;;;;;;2614588;54;20181;-72
2023/04/29 15:10:11;;;;;;;18.47;16.97;;;16.10;29.20;;;;;;2612502;54;20126;-74
2023/04/29 15:15:59;;;;;;;17.83;16.47;;;15.90;27.90;;;;;;2613604;54;20142;-73
2023/04/29 15:21:47;;;;;;;18.43;17.00;;;16.40;28.70;;;;;;2614983;39;20543;-73
2023/04/29 15:27:35;;;;;;;17.70;16.20;;;16.50;23.00;;;;;;2613144;54;20122;-73
2023/04/29 15:33:23;;;;;;;19.17;17.73;;;16.00;24.70;;;;;;2614007;54;24173;-73
2023/04/29 15:36:43;;;;;;;19.13;17.73;;;16.10;25.40;;;;;;2614911;54;20387;-73
2023/04/29 15:39:09;;;;;;;19.37;17.77;;;17.50;23.40;;;;;;2613251;54;20138;-73
2023/04/29 15:44:57;;;;;;;18.20;17.03;;;16.50;21.80;;;;;;2614253;46;20840;-74
2023/04/29 15:50:45;;;;;;;18.30;16.53;;;16.70;24.30;;;;;;2614090;54;20183;-74
2023/04/29 15:56:33;;;;;;;17.67;16.30;;;16.20;22.10;;;;;;2613194;54;20367;-73
2023/04/29 16:02:21;;;;;;;17.67;16.40;;;16.10;21.40;;;;;;2613646;54;20162;-73
2023/04/29 16:08:08;;;;;;;18.03;16.63;;;15.70;27.40;;;;;;2612079;54;21295;-74
2023/04/29 16:13:56;;;;;;;19.07;17.47;;;15.70;32.90;;;;;;2613661;54;20166;-73
2023/04/29 16:19:43;;;;;;;18.80;17.50;;;15.50;31.00;;;;;;2612122;54;20135;-73
2023/04/29 16:25:31;;;;;;;18.93;17.50;;;15.10;36.40;;;;;;2613810;39;20506;-74
2023/04/29 16:31:19;;;;;;;17.70;16.40;;;15.10;41.40;;;;;;2611999;54;20154;-73
2023/04/29 16:41:12;;;;;;;16.90;15.67;;;14.90;50.10;;;;;;2610271;54;20359;-73
2023/04/29 16:47:01;;;;;;;17.60;15.70;;;14.90;55.20;;;;;;2609496;54;21419;-73
2023/04/29 16:52:49;;;;;;;16.30;15.00;;;14.80;47.30;;;;;;2613151;54;20419;-73
2023/04/29 16:58:37;;;;;;;16.93;14.70;;;14.70;42.10;;;;;;2611953;54;20307;-74
2023/04/29 17:04:25;;;;;;;16.73;15.57;;;14.70;48.00;;;;;;2605846;54;20379;-73
2023/04/29 17:10:13;;;;;;;16.90;15.33;;;14.70;51.80;;;;;;2613090;54;20403;-74
2023/04/29 17:16:01;;;;;;;16.60;15.37;;;14.70;61.70;;;;;;2610933;54;20254;-74
2023/04/29 17:21:49;;;;;;;18.10;16.60;;;14.60;56.50;;;;;;2611027;54;20182;-73
2023/04/29 17:27:37;;;;;;;18.20;15.30;;;14.60;55.80;;;;;;2613242;54;20145;-71
2023/04/29 17:33:53;;;;;;;17.80;16.33;;;15.00;56.10;;;;;;2610906;54;20153;-72
2023/04/29 17:36:41;;;;;;;59.43;53.73;;;14.80;52.80;;;;;;2609468;54;20555;-73
2023/04/29 17:39:09;;;;;;;57.47;51.50;;;14.80;57.00;;;;;;2609508;54;20443;-73
2023/04/29 17:44:57;;;;;;;19.23;17.53;;;15.10;47.80;;;;;;2612024;54;20367;-74
2023/04/29 17:50:46;;;;;;;604.73;550.03;;;14.60;58.30;;;;;;2613366;54;20141;-73
2023/04/29 17:56:34;;;;;;;45.67;42.27;;;14.90;59.20;;;;;;2612930;54;20988;-74
2023/04/29 18:02:21;;;;;;;23.63;21.33;;;14.80;65.60;;;;;;2613305;54;20394;-75
2023/04/29 18:08:10;;;;;;;20.47;18.77;;;14.50;64.20;;;;;;2611402;54;20167;-72
2023/04/29 18:13:57;;;;;;;21.57;19.40;;;14.50;73.30;;;;;;2613402;54;20456;-74
2023/04/29 18:19:47;;;;;;;22.47;20.67;;;14.40;64.70;;;;;;2611211;54;20178;-74
2023/04/29 18:25:36;;;;;;;16.97;15.77;;;14.40;75.90;;;;;;2611661;54;20461;-73
2023/04/29 18:38:12;;;;;;;63.07;57.03;;;14.50;79.80;;;;;;2612197;39;20961;-77
2023/04/29 18:44:01;;;;;;;23.03;20.93;;;14.80;84.10;;;;;;2614135;39;20454;-76
2023/04/29 18:49:49;;;;;;;32.50;29.50;;;14.70;93.90;;;;;;2612902;54;20454;-77
2023/04/29 18:55:38;;;;;;;25.63;23.33;;;14.30;99.90;;;;;;2611410;54;20410;-77
2023/04/29 19:01:26;;;;;;;19.30;17.80;;;14.00;99.90;;;;;;2613375;54;20403;-77
2023/04/29 19:07:14;;;;;;;18.20;16.40;;;13.20;99.90;;;;;;2612590;54;20548;-77
2023/04/29 19:13:02;;;;;;;14.57;12.70;;;12.90;99.90;;;;;;2613425;39;20560;-77
2023/04/29 19:18:50;;;;;;;15.87;14.30;;;12.50;99.90;;;;;;2614205;54;20134;-78
2023/04/29 19:24:39;;;;;;;14.13;12.83;;;12.00;99.90;;;;;;2614730;54;20415;-80
2023/04/29 19:30:27;;;;;;;14.33;13.03;;;11.60;99.90;;;;;;2615003;54;20434;-80
2023/04/29 19:36:16;;;;;;;16.70;15.10;;;11.40;99.90;;;;;;2617156;54;20139;-81
2023/04/29 19:42:03;;;;;;;17.33;15.50;;;11.00;99.90;;;;;;2615200;54;20403;-80
2023/04/29 19:47:53;;;;;;;16.43;14.87;;;10.70;99.90;;;;;;2614446;54;20127;-81
2023/04/29 19:53:41;;;;;;;17.07;15.37;;;10.50;99.90;;;;;;2615751;54;20387;-80
2023/04/29 19:59:29;;;;;;;19.93;17.73;;;10.40;99.90;;;;;;2614821;39;20220;-80
2023/04/29 20:05:18;;;;;;;18.60;16.70;;;10.20;99.90;;;;;;2615859;54;20166;-78
2023/04/29 20:11:07;;;;;;;24.83;17.60;;;10.00;99.90;;;;;;2612957;54;20496;-77
2023/04/29 20:16:55;;;;;;;19.67;17.70;;;9.70;99.90;;;;;;2614780;54;20426;-77
2023/04/29 20:22:43;;;;;;;17.30;15.50;;;9.60;99.90;;;;;;2614017;54;20430;-77
2023/04/29 20:28:31;;;;;;;21.70;19.50;;;9.60;99.90;;;;;;2613687;54;20153;-78
2023/04/29 20:31:17;;;;;;;19.53;17.43;;;9.40;99.90;;;;;;2612977;54;20451;-77
2023/04/29 20:33:42;;;;;;;19.23;16.87;;;9.40;99.90;;;;;;2613256;54;20154;-77
2023/04/29 20:39:30;;;;;;;23.40;19.97;;;9.40;99.90;;;;;;2612697;54;20174;-79
2023/04/29 20:45:18;;;;;;;24.20;17.63;;;9.30;99.90;;;;;;2614156;54;20475;-79
2023/04/29 20:51:06;;;;;;;16.73;14.97;;;9.10;99.90;;;;;;2615343;54;20395;-78
2023/04/29 20:56:55;;;;;;;17.30;15.60;;;9.20;99.90;;;;;;2614779;54;20400;-83
2023/04/29 21:02:43;;;;;;;14.80;12.70;;;9.10;99.90;;;;;;2614724;54;20410;-79
2023/04/29 21:08:31;;;;;;;16.00;13.20;;;8.90;99.90;;;;;;2618034;39;20541;-78
2023/04/29 21:14:19;;;;;;;15.50;13.87;;;8.70;99.90;;;;;;2612800;54;20134;-80
2023/04/29 21:20:07;;;;;;;12.67;11.37;;;8.60;99.90;;;;;;2611529;54;20387;-79
2023/04/29 21:25:55;;;;;;;18.13;13.50;;;8.50;99.90;;;;;;2611588;54;21668;-79
2023/04/29 21:35:47;;;;;;;13.70;12.40;;;8.40;99.90;;;;;;2613206;54;20450;-78
2023/04/29 21:41:37;;;;;;;19.97;13.37;;;8.20;99.90;;;;;;2612613;54;20402;-78
2023/04/29 21:47:30;;;;;;;16.23;13.70;;;8.20;99.90;;;;;;2614901;54;20395;-78
2023/04/29 21:53:18;;;;;;;15.63;12.77;;;8.10;99.90;;;;;;2613618;54;20427;-77
2023/04/29 21:59:05;;;;;;;14.00;12.27;;;8.10;99.90;;;;;;2613419;54;20153;-78
2023/04/29 22:04:53;;;;;;;15.47;13.53;;;8.20;99.90;;;;;;2613096;54;20162;-79
2023/04/29 22:10:41;;;;;;;16.40;12.93;;;8.40;99.90;;;;;;2611993;54;20178;-78
2023/04/29 22:16:30;;;;;;;17.20;13.30;;;8.50;99.90;;;;;;2611680;54;20375;-77
2023/04/29 22:22:18;;;;;;;14.70;12.40;;;8.60;99.90;;;;;;2615290;54;20388;-77
2023/04/29 22:28:06;;;;;;;15.47;11.40;;;8.80;99.90;;;;;;2609419;39;20465;-79
2023/04/29 22:33:54;;;;;;;16.53;12.37;;;8.50;99.90;;;;;;2612948;54;20150;-79
2023/04/29 22:39:42;;;;;;;12.43;11.17;;;8.40;99.90;;;;;;2615256;39;20541;-78
2023/04/29 22:45:30;;;;;;;19.20;12.53;;;8.50;99.90;;;;;;2614564;54;20394;-78
2023/04/29 22:51:18;;;;;;;14.30;12.20;;;8.60;99.90;;;;;;2613876;54;20940;-78
2023/04/29 22:57:06;;;;;;;12.37;10.80;;;8.70;99.90;;;;;;2613871;54;20138;-79
2023/04/29 23:02:54;;;;;;;13.53;11.03;;;8.60;99.90;;;;;;2613360;39;20552;-79
2023/04/29 23:08:43;;;;;;;12.87;11.57;;;8.60;99.90;;;;;;2615303;54;20134;-79
2023/04/29 23:14:31;;;;;;;13.87;12.43;;;8.60;99.90;;;;;;2621891;39;20852;-80
2023/04/29 23:20:19;;;;;;;13.67;11.87;;;8.50;99.90;;;;;;2621639;54;20122;-80
2023/04/29 23:26:07;;;;;;;14.50;11.53;;;8.30;99.90;;;;;;2619181;54;20138;-80
2023/04/29 23:31:55;;;;;;;14.77;10.67;;;8.00;99.90;;;;;;2619396;54;20399;-80
2023/04/29 23:41:05;;;;;;;12.57;11.27;;;7.70;99.90;;;;;;2619311;54;20495;-79
2023/04/29 23:46:53;;;;;;;15.20;12.43;;;7.40;99.90;;;;;;2618701;39;20615;-80
2023/04/29 23:52:41;;;;;;;15.03;13.43;;;7.10;99.90;;;;;;2618389;46;20149;-79
2023/04/29 23:58:29;;;;;;;13.40;12.00;;;7.10;99.90;;;;;;2619090;54;20134;-80
